Time;durP1;ratioP1;P1;durP2;ratioP2;P2;SDS_P1;SDS_P2;PMS_P1;PMS_P2;Temp;Humidity;BMP_temperature;BMP_pressure;BME280_temperature;BME280_humidity;BME280_pressure;Samples;Min_cycle;Max_cycle;Signal;HPM_P1;HPM_P2
2022/06/01 00:02:48;;;;;;;5.50;3.28;;;11.60;99.90;;;;;;4971266;28;20039;-87
2022/06/01 00:05:36;;;;;;;5.03;2.70;;;11.70;99.90;;;;;;4976403;28;20035;-86
2022/06/01 00:08:25;;;;;;;11.45;3.45;;;11.80;99.90;;;;;;4968590;28;20111;-85
2022/06/01 00:11:12;;;;;;;5.75;3.17;;;11.80;99.90;;;;;;4971932;28;20035;-85
2022/06/01 00:14:02;;;;;;;5.18;3.38;;;11.70;99.90;;;;;;4975409;28;20194;-86
2022/06/01 00:16:55;;;;;;;5.75;3.55;;;11.60;99.90;;;;;;4976796;28;20051;-87
2022/06/01 00:19:45;;;;;;;9.35;3.78;;;11.60;99.90;;;;;;4972893;28;20057;-84
2022/06/01 00:22:33;;;;;;;7.43;3.58;;;11.60;99.90;;;;;;4978486;28;20080;-86
2022/06/01 00:25:24;;;;;;;6.43;3.60;;;11.60;99.90;;;;;;4976023;28;20046;-85
2022/06/01 00:28:13;;;;;;;5.07;3.17;;;11.60;99.90;;;;;;4979628;28;20043;-85
2022/06/01 00:31:01;;;;;;;5.05;3.25;;;11.70;99.90;;;;;;4990119;28;20079;-85
2022/06/01 00:33:48;;;;;;;6.00;3.55;;;11.80;99.90;;;;;;4999212;28;20050;-85
2022/06/01 00:36:35;;;;;;;4.65;3.50;;;11.70;99.90;;;;;;4991691;28;20054;-81
2022/06/01 00:39:23;;;;;;;5.05;3.38;;;11.60;99.90;;;;;;4979431;28;20118;-85
2022/06/01 00:42:13;;;;;;;6.30;3.63;;;11.50;99.90;;;;;;4977877;28;20047;-84
2022/06/01 00:45:01;;;;;;;5.03;3.80;;;11.40;99.90;;;;;;4978704;28;20078;-85
2022/06/01 00:47:50;;;;;;;3.97;3.50;;;11.30;99.90;;;;;;4977140;28;20046;-83
2022/06/01 00:50:41;;;;;;;6.65;3.80;;;11.20;99.90;;;;;;4979227;28;20043;-86
2022/06/01 00:53:33;;;;;;;5.90;4.57;;;11.20;99.90;;;;;;4974139;28;20054;-86
2022/06/01 00:56:27;;;;;;;8.63;3.83;;;11.20;99.90;;;;;;4975442;28;20405;-85
2022/06/01 00:59:19;;;;;;;7.47;4.20;;;11.10;99.90;;;;;;4974306;28;20426;-85
2022/06/01 01:02:10;;;;;;;4.85;4.07;;;11.00;99.90;;;;;;4975069;28;20178;-84
2022/06/01 01:05:02;;;;;;;5.30;3.95;;;10.90;99.90;;;;;;4979367;28;20070;-84
2022/06/01 01:07:54;;;;;;;8.48;4.53;;;10.80;99.90;;;;;;4973312;28;20144;-84
2022/06/01 01:10:43;;;;;;;5.95;4.25;;;10.80;99.90;;;;;;4970158;28;20047;-84
2022/06/01 01:13:30;;;;;;;8.95;4.38;;;10.80;99.90;;;;;;4975217;28;20051;-84
2022/06/01 01:16:20;;;;;;;6.18;4.10;;;10.80;99.90;;;;;;4976435;28;20074;-84
2022/06/01 01:19:22;;;;;;;6.05;4.07;;;10.90;99.90;;;;;;4972621;28;20043;-84
2022/06/01 01:22:37;;;;;;;6.60;4.68;;;10.90;99.90;;;;;;4974497;28;20447;-85
2022/06/01 01:25:32;;;;;;;7.82;4.35;;;10.90;99.90;;;;;;4975322;28;20445;-84
2022/06/01 01:28:19;;;;;;;7.10;4.10;;;10.90;99.90;;;;;;4967575;28;20058;-84
2022/06/01 01:31:18;;;;;;;7.40;4.10;;;10.90;99.90;;;;;;4975278;28;20070;-85
2022/06/01 01:34:06;;;;;;;4.65;3.88;;;10.80;99.90;;;;;;4976408;28;20085;-84
2022/06/01 01:36:57;;;;;;;6.82;4.68;;;10.60;99.90;;;;;;4977432;28;20070;-84
2022/06/01 01:39:47;;;;;;;8.88;5.13;;;10.60;99.90;;;;;;4985780;28;20043;-87
2022/06/01 01:42:35;;;;;;;6.13;4.53;;;10.50;99.90;;;;;;4980674;28;20134;-84
2022/06/01 01:45:32;;;;;;;6.32;4.85;;;10.40;99.90;;;;;;4983561;28;20051;-84
2022/06/01 01:48:19;;;;;;;10.77;4.75;;;10.20;99.90;;;;;;4973432;28;20051;-84
2022/06/01 01:51:06;;;;;;;8.55;5.13;;;10.00;99.90;;;;;;4973965;28;20429;-84
2022/06/01 01:53:59;;;;;;;8.13;5.28;;;10.10;99.90;;;;;;4971090;28;20129;-85
2022/06/01 01:57:04;;;;;;;8.00;5.45;;;10.10;99.90;;;;;;4973863;28;20047;-83
2022/06/01 02:00:07;;;;;;;6.65;5.15;;;10.20;99.90;;;;;;4974052;28;20053;-84
2022/06/01 02:03:12;;;;;;;7.53;4.80;;;10.20;99.90;;;;;;4976194;28;20059;-84
2022/06/01 02:06:14;;;;;;;6.60;5.18;;;10.20;99.90;;;;;;4987149;28;20318;-84
2022/06/01 02:09:11;;;;;;;6.80;3.97;;;10.20;99.90;;;;;;4982547;28;20059;-84
2022/06/01 02:15:06;;;;;;;10.32;6.00;;;10.10;99.90;;;;;;4985797;28;20039;-84
2022/06/01 02:18:16;;;;;;;9.63;5.78;;;10.10;99.90;;;;;;4982177;28;20047;-83
2022/06/01 02:21:14;;;;;;;6.38;4.95;;;10.10;99.90;;;;;;4984278;28;20071;-85
2022/06/01 02:24:01;;;;;;;7.82;4.95;;;10.20;99.90;;;;;;4997960;28;20050;-81
2022/06/01 02:26:50;;;;;;;7.90;5.50;;;10.20;99.90;;;;;;4985858;28;20035;-84
2022/06/01 02:29:47;;;;;;;7.82;5.30;;;10.20;99.90;;;;;;4986948;28;20168;-83
2022/06/01 02:32:38;;;;;;;8.60;5.47;;;10.10;99.90;;;;;;4986314;28;20067;-84
2022/06/01 02:35:28;;;;;;;8.73;4.97;;;10.00;99.90;;;;;;4982370;28;20118;-85
2022/06/01 02:38:23;;;;;;;8.25;5.50;;;10.00;99.90;;;;;;4976845;28;20055;-85
2022/06/01 02:42:25;;;;;;;11.13;6.22;;;10.00;99.90;;;;;;4976503;28;20460;-86
2022/06/01 02:44:17;;;;;;;9.05;5.07;;;10.00;99.90;;;;;;4976496;28;20035;-84
2022/06/01 02:47:05;;;;;;;7.47;5.50;;;9.90;99.90;;;;;;4975464;28;20197;-84
2022/06/01 02:49:52;;;;;;;9.48;6.00;;;9.80;99.90;;;;;;4974557;28;20106;-85
2022/06/01 02:52:40;;;;;;;8.40;5.45;;;9.70;99.90;;;;;;4965735;28;20133;-85
2022/06/01 02:55:29;;;;;;;7.88;6.05;;;9.50;99.90;;;;;;4963057;28;20039;-84
2022/06/01 02:58:16;;;;;;;12.20;6.32;;;9.50;99.90;;;;;;4973468;28;20046;-85
2022/06/01 03:01:06;;;;;;;8.73;6.78;;;9.30;99.90;;;;;;4969176;28;20109;-83
2022/06/01 03:03:53;;;;;;;11.30;6.70;;;9.40;99.90;;;;;;4975860;28;20057;-85
2022/06/01 03:06:41;;;;;;;9.52;7.00;;;9.40;99.90;;;;;;4965361;28;20070;-83
2022/06/01 03:09:48;;;;;;;10.50;7.35;;;9.40;99.90;;;;;;4968123;28;20043;-83
2022/06/01 03:12:39;;;;;;;10.25;7.07;;;9.30;99.90;;;;;;4968409;28;20051;-82
2022/06/01 03:15:27;;;;;;;9.90;6.95;;;9.30;99.90;;;;;;4968388;28;20676;-84
2022/06/01 03:18:14;;;;;;;11.98;7.18;;;9.30;99.90;;;;;;4970901;28;20039;-85
2022/06/01 03:21:01;;;;;;;8.80;6.75;;;9.30;99.90;;;;;;4970511;28;20089;-85
2022/06/01 03:23:49;;;;;;;10.32;6.95;;;9.40;99.90;;;;;;4968151;28;20334;-83
2022/06/01 03:26:37;;;;;;;12.15;7.43;;;9.30;99.90;;;;;;4979948;28;20039;-84
2022/06/01 03:29:29;;;;;;;9.30;7.28;;;9.30;99.90;;;;;;4988545;28;20396;-85
2022/06/01 03:32:16;;;;;;;8.35;7.15;;;9.30;99.90;;;;;;4978310;28;20090;-83
2022/06/01 03:35:10;;;;;;;10.20;7.30;;;9.40;99.90;;;;;;4971629;28;20058;-84
2022/06/01 03:37:58;;;;;;;9.30;6.88;;;9.50;99.90;;;;;;4972551;28;20392;-86
2022/06/01 03:40:45;;;;;;;9.93;7.00;;;9.60;99.90;;;;;;4972451;28;20043;-86
2022/06/01 03:45:55;;;;;;;9.88;7.10;;;9.70;99.90;;;;;;4969294;28;20055;-86
2022/06/01 03:46:42;;;;;;;9.82;6.55;;;9.80;99.90;;;;;;4973688;28;20059;-85
2022/06/01 03:49:32;;;;;;;7.35;6.25;;;9.90;99.90;;;;;;4966585;28;20157;-85
2022/06/01 03:52:19;;;;;;;9.68;6.05;;;10.00;99.90;;;;;;4972797;28;20493;-85
2022/06/01 03:55:10;;;;;;;9.10;6.10;;;10.00;99.90;;;;;;4973163;28;20129;-85
2022/06/01 03:57:58;;;;;;;9.68;5.70;;;10.00;99.90;;;;;;4967191;28;20120;-84
2022/06/01 04:00:48;;;;;;;12.02;5.82;;;10.10;99.90;;;;;;4977463;28;20054;-85
2022/06/01 04:03:35;;;;;;;6.80;5.20;;;10.30;99.90;;;;;;4966450;28;20043;-86
2022/06/01 04:06:22;;;;;;;9.98;5.15;;;10.30;99.90;;;;;;4974862;28;20126;-85
2022/06/01 04:09:10;;;;;;;8.15;5.55;;;10.30;99.90;;;;;;4977539;28;20054;-87
2022/06/01 04:21:01;;;;;;;;;;;;;;;;;;;;;
2022/06/01 04:24:28;;;;;;;8.75;4.75;;;10.30;99.90;;;;;;4975888;28;20039;-87
2022/06/01 04:27:16;;;;;;;8.75;4.90;;;10.40;99.90;;;;;;4973319;28;20055;-83
2022/06/01 04:30:08;;;;;;;6.68;5.00;;;10.50;99.90;;;;;;4974582;28;20144;-84
2022/06/01 04:32:58;;;;;;;5.93;4.50;;;10.60;99.90;;;;;;4972950;28;20047;-85
2022/06/01 04:35:45;;;;;;;5.35;4.22;;;10.80;99.90;;;;;;4977351;28;20034;-85
2022/06/01 04:39:14;;;;;;;11.35;4.53;;;10.80;99.90;;;;;;4977331;28;20057;-86
2022/06/01 04:47:02;;;;;;;6.72;5.15;;;11.00;99.90;;;;;;4956170;28;20035;-85
2022/06/01 04:50:03;;;;;;;7.72;4.47;;;11.00;99.90;;;;;;4929386;29;20143;-84
2022/06/01 04:52:51;;;;;;;8.23;4.38;;;11.00;99.90;;;;;;4947839;28;20160;-86
2022/06/01 04:55:41;;;;;;;11.88;6.07;;;11.00;99.90;;;;;;4930545;29;20039;-82
2022/06/01 04:58:34;;;;;;;8.70;4.75;;;11.00;99.90;;;;;;4950322;29;20044;-84
2022/06/01 05:01:24;;;;;;;8.00;4.40;;;11.10;99.90;;;;;;4948974;29;20048;-83
2022/06/01 05:04:12;;;;;;;5.25;4.30;;;11.10;99.90;;;;;;4946549;28;20059;-83
2022/06/01 05:07:01;;;;;;;8.18;4.53;;;11.20;99.90;;;;;;4938453;29;20197;-83
2022/06/01 05:09:48;;;;;;;7.60;4.82;;;11.30;99.90;;;;;;4942826;29;20062;-84
2022/06/01 05:12:38;;;;;;;8.18;4.13;;;11.40;99.90;;;;;;4942079;28;20067;-80
2022/06/01 05:15:27;;;;;;;7.57;4.47;;;11.50;99.90;;;;;;4987834;28;20046;-81
2022/06/01 05:18:15;;;;;;;6.00;4.00;;;11.70;99.90;;;;;;4985227;28;20166;-85
2022/06/01 05:33:25;;;;;;;7.57;3.63;;;12.60;99.90;;;;;;5278151;23;20050;-84
2022/06/01 05:53:32;;;;;;;7.70;3.63;;;13.00;99.90;;;;;;4931784;29;20487;-83
2022/06/01 06:04:44;;;;;;;7.07;3.22;;;13.30;99.90;;;;;;4901681;29;20131;-87
2022/06/01 06:08:44;;;;;;;7.10;3.03;;;13.30;99.90;;;;;;4862204;29;20057;-89
2022/06/01 06:28:55;;;;;;;4.25;3.05;;;14.00;99.90;;;;;;4783000;29;20146;-87
2022/06/01 06:36:24;;;;;;;5.13;2.92;;;14.50;99.90;;;;;;4806208;29;20050;-85
2022/06/01 06:39:18;;;;;;;4.47;2.90;;;14.70;99.90;;;;;;4888121;29;20068;-87
2022/06/01 06:42:27;;;;;;;4.32;2.60;;;15.00;99.90;;;;;;4895053;29;20217;-86
2022/06/01 06:45:15;;;;;;;8.02;3.05;;;15.10;99.90;;;;;;4882187;29;20061;-87
2022/06/01 06:48:03;;;;;;;5.78;2.70;;;15.30;99.90;;;;;;4895894;29;20486;-86
2022/06/01 06:50:51;;;;;;;8.15;2.85;;;15.80;99.90;;;;;;4967369;28;20057;-86
2022/06/01 06:53:41;;;;;;;6.03;2.58;;;16.10;99.90;;;;;;5001909;28;20053;-85
2022/06/01 06:56:28;;;;;;;2.85;2.55;;;16.30;99.90;;;;;;5000855;28;20046;-84
2022/06/01 06:59:36;;;;;;;6.25;2.55;;;16.50;99.90;;;;;;4963590;28;20132;-87
2022/06/01 07:02:25;;;;;;;5.32;2.55;;;16.80;99.90;;;;;;5016142;28;20063;-86
2022/06/01 07:06:08;;;;;;;7.45;2.65;;;17.20;99.90;;;;;;4999871;28;20090;-87
2022/06/01 07:08:20;;;;;;;2.78;2.40;;;17.50;99.90;;;;;;5009086;28;20049;-88
2022/06/01 07:11:17;;;;;;;3.35;2.20;;;17.80;99.90;;;;;;5011952;28;20072;-89
2022/06/01 07:14:05;;;;;;;8.45;2.35;;;17.80;99.90;;;;;;5022591;28;20046;-85
2022/06/01 07:16:58;;;;;;;5.10;2.50;;;17.70;99.90;;;;;;5014404;28;20073;-90
2022/06/01 07:19:48;;;;;;;5.35;2.40;;;18.00;99.90;;;;;;5014552;28;20120;-86
2022/06/01 07:22:37;;;;;;;4.20;2.42;;;17.70;99.90;;;;;;5013286;28;20049;-86
2022/06/01 07:25:28;;;;;;;2.67;1.80;;;17.70;99.90;;;;;;5004799;28;20054;-87
2022/06/01 07:28:37;;;;;;;3.67;2.42;;;18.10;99.90;;;;;;5015106;28;20045;-82
2022/06/01 07:31:43;;;;;;;3.70;2.22;;;18.30;99.90;;;;;;5016099;28;20159;-89
2022/06/01 07:34:31;;;;;;;3.58;2.17;;;19.00;99.90;;;;;;4998715;28;20058;-89
2022/06/01 07:44:53;;;;;;;;;;;;;;;;;;;;;
2022/06/01 07:47:43;;;;;;;4.45;2.03;;;19.50;96.00;;;;;;5021116;28;20053;-89
2022/06/01 07:51:28;;;;;;;3.45;1.92;;;20.00;96.70;;;;;;5019126;28;20049;-89
2022/06/01 07:54:17;;;;;;;3.75;2.20;;;20.60;93.30;;;;;;4967750;28;20057;-88
2022/06/01 07:57:18;;;;;;;4.32;1.75;;;20.60;93.10;;;;;;5025904;28;20068;-88
2022/06/01 08:00:08;;;;;;;4.30;1.80;;;20.80;93.30;;;;;;4999682;28;20056;-88
2022/06/01 08:39:09;;;;;;;3.45;1.52;;;21.30;64.70;;;;;;4949910;29;20063;-86
2022/06/01 08:43:09;;;;;;;5.30;1.38;;;20.70;64.30;;;;;;4952046;29;20048;-89
2022/06/01 08:46:06;;;;;;;2.72;1.63;;;20.10;68.60;;;;;;4915788;29;20056;-85
2022/06/01 08:48:59;;;;;;;5.22;1.42;;;19.80;70.50;;;;;;4948434;29;20040;-88
2022/06/01 08:51:47;;;;;;;5.53;1.42;;;19.30;66.60;;;;;;4943925;29;20039;-88
2022/06/01 08:54:42;;;;;;;4.18;1.88;;;19.20;70.40;;;;;;4945995;29;20044;-89
2022/06/01 08:57:41;;;;;;;;;;;;;;;;;;;;;
2022/06/01 09:00:53;;;;;;;3.47;1.17;;;19.80;62.10;;;;;;4947239;29;19922;-90
2022/06/01 09:04:13;;;;;;;5.00;1.48;;;21.00;59.20;;;;;;4958436;29;20040;-87
2022/06/01 09:07:21;;;;;;;2.55;1.10;;;21.80;56.70;;;;;;4939682;29;20146;-88
2022/06/01 09:10:40;;;;;;;4.85;1.42;;;21.70;55.10;;;;;;4966506;28;20049;-91
2022/06/01 09:13:46;;;;;;;3.55;1.00;;;22.10;52.90;;;;;;4952827;29;20036;-89
2022/06/01 09:37:07;;;;;;;2.78;0.70;;;23.50;44.90;;;;;;4918339;29;20179;-88
2022/06/01 09:40:36;;;;;;;1.58;0.90;;;23.10;45.60;;;;;;4943549;29;20137;-87
2022/06/01 09:44:05;;;;;;;4.35;1.02;;;22.40;46.50;;;;;;4919133;29;20074;-85
2022/06/01 09:47:07;;;;;;;3.95;0.93;;;22.00;47.30;;;;;;4879882;29;20097;-86
2022/06/01 09:50:06;;;;;;;4.53;1.02;;;22.70;46.80;;;;;;4889871;29;20168;-87
2022/06/01 09:54:27;;;;;;;;;;;;;;;;;;;;;
2022/06/01 09:58:09;;;;;;;1.98;0.80;;;23.40;44.30;;;;;;4854143;29;20056;-89
2022/06/01 10:08:47;;;;;;;1.38;0.90;;;25.30;41.30;;;;;;4814620;29;20085;-88
2022/06/01 10:11:57;;;;;;;1.45;0.77;;;25.70;39.70;;;;;;4859658;29;20137;-88
2022/06/01 10:15:18;;;;;;;1.48;0.80;;;26.00;37.60;;;;;;4888761;29;20048;-86
2022/06/01 10:18:26;;;;;;;1.65;1.00;;;25.40;40.70;;;;;;4880892;29;20068;-86
2022/06/01 10:21:20;;;;;;;1.40;0.70;;;25.20;40.70;;;;;;4878259;29;20049;-85
2022/06/01 10:24:17;;;;;;;1.35;0.70;;;25.10;40.30;;;;;;4919188;29;20115;-87
2022/06/01 10:27:30;;;;;;;2.58;0.88;;;25.50;39.40;;;;;;4929046;28;20126;-85
2022/06/01 10:30:36;;;;;;;0.50;0.40;;;25.70;38.20;;;;;;4940999;29;20156;-89
2022/06/01 10:33:47;;;;;;;1.52;0.82;;;26.10;36.00;;;;;;4953661;28;20154;-84
2022/06/01 10:37:07;;;;;;;4.85;1.10;;;25.60;38.00;;;;;;4946654;29;20199;-87
2022/06/01 10:40:19;;;;;;;1.08;0.70;;;25.70;37.70;;;;;;4903656;29;20130;-83
2022/06/01 10:43:27;;;;;;;;;;;24.90;38.30;;;;;;4941266;29;20426;-90
2022/06/01 10:46:33;;;;;;;5.15;0.82;;;25.20;39.30;;;;;;4950596;28;20361;-85
2022/06/01 10:49:39;;;;;;;1.35;0.90;;;25.70;37.80;;;;;;4931849;29;20048;-86
2022/06/01 10:53:22;;;;;;;1.52;0.75;;;25.60;36.90;;;;;;4936875;29;20047;-86
2022/06/01 10:56:15;;;;;;;;;;;25.50;38.30;;;;;;4929602;29;20052;-86
2022/06/01 10:59:16;;;;;;;3.95;1.08;;;25.70;38.10;;;;;;4948357;29;19922;-82
2022/06/01 11:02:21;;;;;;;3.70;0.95;;;25.60;38.60;;;;;;4945994;29;20094;-83
2022/06/01 11:05:23;;;;;;;2.10;0.90;;;26.00;40.80;;;;;;4926138;29;20044;-84
2022/06/01 11:08:27;;;;;;;1.48;0.77;;;27.60;38.50;;;;;;4921049;29;20142;-83
2022/06/01 11:11:38;;;;;;;3.33;0.90;;;28.20;35.70;;;;;;4935603;29;20429;-85
2022/06/01 11:15:10;;;;;;;2.70;0.93;;;27.50;35.10;;;;;;4938432;28;20040;-85
2022/06/01 11:18:02;;;;;;;2.10;0.85;;;26.60;36.40;;;;;;4942024;29;20047;-86
2022/06/01 11:21:13;;;;;;;1.70;0.85;;;25.80;37.50;;;;;;4936026;28;20166;-86
2022/06/01 11:24:20;;;;;;;4.82;1.02;;;25.00;39.90;;;;;;4940375;29;20145;-89
2022/06/01 11:27:47;;;;;;;1.83;0.75;;;24.90;39.60;;;;;;4929283;29;20055;-88
2022/06/01 11:38:49;;;;;;;2.00;0.80;;;25.70;36.40;;;;;;4932943;29;20043;-87
2022/06/01 11:42:17;;;;;;;4.45;0.88;;;26.00;39.00;;;;;;4928342;29;20103;-89
2022/06/01 11:45:54;;;;;;;2.22;0.98;;;25.90;34.70;;;;;;4934513;29;20366;-89
2022/06/01 11:48:48;;;;;;;2.67;0.82;;;25.30;35.30;;;;;;4938107;29;20059;-87
2022/06/01 11:55:46;;;;;;;1.05;0.70;;;25.20;36.10;;;;;;4935699;28;20067;-90
2022/06/01 11:58:50;;;;;;;2.42;0.90;;;24.20;38.80;;;;;;4935543;29;20094;-88
2022/06/01 13:22:27;;;;;;;5.13;1.65;;;21.80;47.60;;;;;;4961559;28;20134;-87
2022/06/01 14:13:55;;;;;;;3.20;2.17;;;22.70;48.00;;;;;;4609334;31;20044;-87
2022/06/01 15:18:25;;;;;;;3.05;1.10;;;23.20;44.80;;;;;;5908424;23;20051;-86
2022/06/01 15:40:53;;;;;;;2.35;1.58;;;23.20;45.50;;;;;;4858253;29;20065;-85
2022/06/01 15:43:43;;;;;;;2.13;1.20;;;23.10;45.80;;;;;;4864997;29;20050;-88
2022/06/01 15:46:37;;;;;;;3.92;1.40;;;23.70;45.40;;;;;;4841159;29;20373;-90
2022/06/01 15:49:36;;;;;;;2.90;1.38;;;24.00;45.50;;;;;;4855740;29;20058;-90
2022/06/01 15:52:26;;;;;;;2.38;1.13;;;23.90;45.40;;;;;;4866232;29;20051;-85
2022/06/01 15:55:15;;;;;;;2.17;1.27;;;23.80;45.20;;;;;;4857723;29;20050;-90
2022/06/01 15:58:10;;;;;;;3.10;0.90;;;23.90;45.60;;;;;;4850738;29;20054;-90
2022/06/01 16:01:14;;;;;;;4.65;1.10;;;24.20;45.10;;;;;;4834153;29;20042;-86
2022/06/01 16:04:02;;;;;;;5.07;1.50;;;24.20;44.20;;;;;;4842509;29;20033;-84
2022/06/01 16:07:13;;;;;;;3.83;1.02;;;24.20;44.40;;;;;;4793955;29;20128;-86
2022/06/01 16:10:22;;;;;;;2.97;1.25;;;23.80;44.30;;;;;;4801549;30;20044;-86
2022/06/01 16:13:14;;;;;;;3.58;1.30;;;23.50;49.70;;;;;;4802160;29;20042;-86
2022/06/01 16:27:24;;;;;;;;;;;22.50;48.20;;;;;;4784151;29;20138;-91
2022/06/01 16:30:52;;;;;;;1.23;1.10;;;22.70;47.10;;;;;;4842666;29;20100;-92
2022/06/01 16:33:53;;;;;;;2.83;1.20;;;22.90;47.10;;;;;;4869182;29;20052;-89
2022/06/01 16:36:46;;;;;;;4.18;1.30;;;22.80;47.10;;;;;;4870166;29;20045;-91
2022/06/01 16:39:34;;;;;;;3.78;1.13;;;22.60;48.50;;;;;;4886528;29;20080;-92
2022/06/01 16:42:31;;;;;;;3.63;1.38;;;22.70;51.90;;;;;;4903877;29;20049;-89
2022/06/01 16:45:26;;;;;;;5.70;1.30;;;22.60;49.20;;;;;;4892443;29;20045;-90
2022/06/01 16:48:21;;;;;;;2.20;1.30;;;22.30;49.40;;;;;;4888031;29;20057;-90
2022/06/01 16:51:10;;;;;;;4.05;1.88;;;22.10;48.90;;;;;;4874977;29;20060;-90
2022/06/01 16:54:03;;;;;;;1.95;1.30;;;22.00;48.10;;;;;;4870710;29;20049;-89
2022/06/01 16:56:52;;;;;;;3.55;1.42;;;21.90;48.90;;;;;;4876606;29;20359;-93
2022/06/01 16:59:42;;;;;;;4.57;1.60;;;21.90;49.40;;;;;;4883597;29;20056;-91
2022/06/01 17:02:30;;;;;;;4.70;1.27;;;22.00;52.10;;;;;;4871284;29;20072;-90
2022/06/01 17:05:20;;;;;;;4.13;1.20;;;22.00;50.20;;;;;;4870127;29;20045;-86
2022/06/01 17:08:19;;;;;;;4.15;1.50;;;21.80;49.30;;;;;;4884982;29;20207;-90
2022/06/01 17:11:08;;;;;;;2.15;1.40;;;21.70;50.40;;;;;;4858144;29;20446;-89
2022/06/01 17:13:58;;;;;;;1.50;1.20;;;21.60;50.40;;;;;;4857943;29;20052;-87
2022/06/01 17:16:48;;;;;;;3.13;1.35;;;21.50;49.80;;;;;;4880228;29;20125;-90
2022/06/01 17:19:38;;;;;;;2.03;1.15;;;21.40;50.40;;;;;;4872299;29;20117;-89
2022/06/01 17:22:28;;;;;;;2.28;1.08;;;21.30;51.00;;;;;;4872370;29;20133;-92
2022/06/01 17:25:16;;;;;;;2.03;1.10;;;21.10;53.40;;;;;;4880603;29;20129;-92
2022/06/01 17:28:07;;;;;;;2.75;1.17;;;21.10;54.40;;;;;;4871543;29;20125;-92
2022/06/01 17:30:55;;;;;;;2.78;1.10;;;20.90;53.60;;;;;;4868838;29;20080;-92
2022/06/01 17:33:42;;;;;;;3.45;1.30;;;20.70;55.30;;;;;;4880281;29;20045;-88
2022/06/01 17:36:31;;;;;;;3.50;1.30;;;20.50;53.60;;;;;;4885626;29;20045;-87
2022/06/01 17:39:20;;;;;;;4.28;1.30;;;20.30;53.40;;;;;;4878216;29;20072;-89
2022/06/01 17:42:08;;;;;;;5.60;1.58;;;20.20;55.90;;;;;;4869336;29;20049;-89
2022/06/01 17:44:57;;;;;;;5.30;1.20;;;20.00;57.60;;;;;;4863533;29;20051;-89
2022/06/01 17:47:44;;;;;;;2.95;1.00;;;19.90;55.70;;;;;;4874981;29;20064;-90
2022/06/01 17:50:34;;;;;;;3.30;1.25;;;19.70;56.80;;;;;;4877756;29;20154;-90
2022/06/01 17:53:23;;;;;;;1.75;1.15;;;19.60;56.90;;;;;;4874804;29;20061;-91
2022/06/01 17:56:23;;;;;;;2.55;1.08;;;19.40;58.10;;;;;;4879508;29;20056;-90
2022/06/01 17:59:14;;;;;;;3.97;1.35;;;19.30;57.30;;;;;;4883413;29;20049;-89
2022/06/01 18:02:02;;;;;;;7.40;1.40;;;19.20;56.40;;;;;;4864895;29;20108;-89
2022/06/01 18:04:52;;;;;;;1.83;1.17;;;19.10;56.60;;;;;;4869935;29;20072;-91
2022/06/01 18:07:40;;;;;;;4.63;1.60;;;19.10;57.10;;;;;;4872961;29;20200;-90
2022/06/01 18:10:31;;;;;;;2.05;1.40;;;18.90;56.90;;;;;;4872727;29;20135;-90
2022/06/01 18:13:21;;;;;;;1.60;1.33;;;18.90;57.40;;;;;;4869136;29;20108;-89
2022/06/01 18:16:21;;;;;;;3.65;1.40;;;18.80;58.00;;;;;;4885367;29;20045;-87
2022/06/01 18:19:16;;;;;;;2.67;1.30;;;18.70;57.40;;;;;;4884190;29;20160;-91
2022/06/01 18:22:06;;;;;;;5.18;1.45;;;18.60;59.40;;;;;;4888251;29;20052;-85
2022/06/01 18:24:59;;;;;;;3.42;1.20;;;18.40;60.00;;;;;;4875099;29;20115;-89
2022/06/01 18:27:47;;;;;;;3.97;1.13;;;18.20;60.40;;;;;;4880387;29;20479;-88
2022/06/01 18:30:40;;;;;;;3.83;1.60;;;18.10;60.70;;;;;;4884144;29;20060;-90
2022/06/01 18:33:28;;;;;;;3.13;1.98;;;17.90;60.80;;;;;;4872756;29;20160;-90
2022/06/01 18:36:27;;;;;;;3.40;1.27;;;17.80;63.60;;;;;;4883242;29;20045;-89
2022/06/01 18:39:15;;;;;;;4.57;1.30;;;17.70;63.40;;;;;;4900012;29;20049;-87
2022/06/01 18:46:38;;;;;;;7.80;1.40;;;17.40;65.70;;;;;;4877043;29;20064;-90
2022/06/01 18:53:43;;;;;;;;;;;;;;;;;;;;;
2022/06/01 18:57:05;;;;;;;;;;;;;;;;;;;;;
2022/06/01 19:04:39;;;;;;;;;;;;;;;;;;;;;
2022/06/01 19:07:49;;;;;;;3.10;1.33;;;16.50;68.80;;;;;;4748794;30;20056;-89
2022/06/01 19:11:29;;;;;;;;;;;;;;;;;;;;;
2022/06/01 19:15:33;;;;;;;;;;;;;;;;;;;;;
2022/06/01 19:18:38;;;;;;;5.63;1.92;;;16.00;69.40;;;;;;4770272;29;20475;-89
2022/06/01 19:21:29;;;;;;;1.92;1.63;;;16.00;68.90;;;;;;4803926;29;20055;-89
2022/06/01 19:45:36;;;;;;;5.20;1.25;;;15.10;77.10;;;;;;4705279;30;19963;-87
2022/06/01 19:49:23;;;;;;;5.55;1.90;;;15.10;77.20;;;;;;4772790;29;20051;-89
2022/06/01 20:39:56;;;;;;;;;;;;;;;;;;;;;
2022/06/01 20:43:27;;;;;;;;;;;;;;;;;;;;;
2022/06/01 20:47:19;;;;;;;2.22;1.50;;;15.60;80.70;;;;;;6184143;23;20112;-85
2022/06/01 20:51:09;;;;;;;1.42;1.23;;;15.60;77.20;;;;;;6182744;23;20014;-90
2022/06/01 20:54:44;;;;;;;;;;;;;;;;;;;;;
2022/06/01 21:02:00;;;;;;;2.17;1.33;;;15.70;78.50;;;;;;6094514;23;20078;-90
2022/06/01 21:04:50;;;;;;;1.95;1.23;;;15.80;76.10;;;;;;6077658;23;20027;-89
2022/06/01 21:07:41;;;;;;;1.52;1.10;;;15.90;76.10;;;;;;6078082;23;20025;-88
2022/06/01 21:10:29;;;;;;;4.80;2.00;;;15.90;76.10;;;;;;6164181;23;20029;-89
2022/06/01 21:13:16;;;;;;;3.20;2.00;;;15.90;78.00;;;;;;6165855;23;20029;-87
2022/06/01 21:16:07;;;;;;;4.57;2.00;;;15.90;80.60;;;;;;6143601;23;20100;-88
2022/06/01 21:19:01;;;;;;;2.25;1.48;;;15.90;80.00;;;;;;6162885;23;20032;-88
2022/06/01 21:21:54;;;;;;;3.58;1.92;;;15.80;79.60;;;;;;6163394;23;20111;-89
2022/06/01 21:24:50;;;;;;;2.55;1.70;;;15.70;79.50;;;;;;6211327;23;20042;-88
2022/06/01 21:27:42;;;;;;;3.10;1.65;;;15.70;80.40;;;;;;6250141;23;20108;-86
2022/06/01 21:30:31;;;;;;;4.97;1.88;;;15.70;79.60;;;;;;6250202;23;20024;-88
2022/06/01 21:33:20;;;;;;;6.63;1.58;;;15.80;78.90;;;;;;6226509;23;20056;-86
2022/06/01 21:36:07;;;;;;;4.10;1.40;;;15.80;80.10;;;;;;6230132;23;20020;-87
2022/06/01 21:38:55;;;;;;;1.90;1.35;;;15.80;77.10;;;;;;6227163;23;20023;-88
2022/06/01 21:41:45;;;;;;;4.05;1.30;;;15.70;77.50;;;;;;6226524;23;20097;-90
2022/06/01 21:44:33;;;;;;;1.20;1.10;;;15.70;75.20;;;;;;6225965;23;20020;-88
2022/06/01 21:47:20;;;;;;;3.28;1.30;;;15.70;75.60;;;;;;6228545;23;20490;-89
2022/06/01 21:50:09;;;;;;;3.58;1.13;;;15.70;76.40;;;;;;6250005;23;20063;-89
2022/06/01 21:53:03;;;;;;;2.13;1.20;;;15.70;75.80;;;;;;6251261;23;20286;-89
2022/06/01 21:55:52;;;;;;;2.58;1.20;;;15.70;76.70;;;;;;6251294;23;20490;-88
2022/06/01 21:58:42;;;;;;;1.30;1.13;;;15.60;76.00;;;;;;6253101;23;20279;-90
2022/06/01 22:01:30;;;;;;;7.38;1.30;;;15.60;76.00;;;;;;6246339;23;20036;-88
2022/06/01 22:04:18;;;;;;;1.55;1.10;;;15.50;77.50;;;;;;6225840;23;20435;-89
2022/06/01 22:07:07;;;;;;;1.42;1.20;;;15.50;76.70;;;;;;6246509;23;20035;-89
2022/06/01 22:09:54;;;;;;;2.10;1.20;;;15.50;80.20;;;;;;6224352;23;20093;-86
2022/06/01 22:12:45;;;;;;;2.22;1.75;;;15.30;78.80;;;;;;6226317;23;20082;-90
2022/06/01 22:15:35;;;;;;;2.67;1.40;;;15.30;77.60;;;;;;6226647;23;20202;-89
2022/06/01 22:18:23;;;;;;;3.38;1.30;;;15.30;78.50;;;;;;6247370;23;20078;-86
2022/06/01 22:21:13;;;;;;;3.30;1.25;;;15.20;78.40;;;;;;6245760;23;20020;-89
2022/06/01 22:24:00;;;;;;;1.77;1.17;;;15.20;80.20;;;;;;6246587;23;20020;-87
2022/06/01 22:26:47;;;;;;;4.40;1.35;;;15.10;80.00;;;;;;6247135;23;20028;-90
2022/06/01 22:29:38;;;;;;;1.75;1.25;;;15.10;77.50;;;;;;6247992;23;20109;-87
2022/06/01 22:32:25;;;;;;;2.80;1.25;;;15.10;77.50;;;;;;6246091;23;20024;-88
2022/06/01 22:38:19;;;;;;;1.90;1.10;;;15.00;75.90;;;;;;6255787;23;20024;-89
2022/06/01 22:41:51;;;;;;;4.32;1.38;;;14.90;78.70;;;;;;6241765;23;20024;-90
2022/06/01 22:44:19;;;;;;;2.03;1.23;;;14.70;78.10;;;;;;6259685;23;20024;-89
2022/06/01 22:47:12;;;;;;;4.53;1.30;;;14.50;77.80;;;;;;6262042;22;20031;-88
2022/06/01 22:50:03;;;;;;;4.03;1.77;;;14.40;77.20;;;;;;6268496;22;20012;-82
2022/06/01 22:53:16;;;;;;;3.05;1.10;;;14.20;78.40;;;;;;6236896;23;20145;-88
2022/06/01 22:56:04;;;;;;;1.92;1.40;;;14.10;78.10;;;;;;6258677;23;20138;-87
2022/06/01 22:58:57;;;;;;;3.13;1.20;;;14.00;80.70;;;;;;6259044;23;20036;-90
2022/06/01 23:01:46;;;;;;;1.92;1.33;;;13.90;83.20;;;;;;6257433;23;20292;-87
2022/06/01 23:04:35;;;;;;;4.20;1.30;;;13.80;80.50;;;;;;6248413;23;20162;-88
2022/06/01 23:07:22;;;;;;;2.60;1.10;;;13.70;80.50;;;;;;6245017;23;20024;-88
2022/06/01 23:10:10;;;;;;;1.90;1.10;;;13.70;80.40;;;;;;6247803;23;20024;-89
2022/06/01 23:13:04;;;;;;;3.90;1.92;;;13.80;78.90;;;;;;6244811;23;20028;-89
2022/06/01 23:15:51;;;;;;;2.42;1.02;;;13.80;78.10;;;;;;6224348;23;20035;-88
2022/06/01 23:18:38;;;;;;;1.80;1.08;;;13.90;79.90;;;;;;6225719;23;20020;-86
2022/06/01 23:21:28;;;;;;;2.67;1.05;;;13.90;79.10;;;;;;6245303;23;20106;-90
2022/06/01 23:24:16;;;;;;;1.88;1.10;;;13.90;79.70;;;;;;6246004;23;20024;-89
2022/06/01 23:27:03;;;;;;;5.30;1.40;;;14.00;78.90;;;;;;6248204;23;20052;-87
2022/06/01 23:29:51;;;;;;;8.80;1.88;;;14.00;79.70;;;;;;6245190;23;20092;-88